sensor_id;sensor_type;location;lat;lon;timestamp;temperature;humidity
17154;DHT22;8692;52.164;7.558;2023-08-20T00:00:37;19.20;99.90
17154;DHT22;8692;52.164;7.558;2023-08-20T00:03:10;19.20;99.90
17154;DHT22;8692;52.164;7.558;2023-08-20T00:05:39;19.10;99.90
17154;DHT22;8692;52.164;7.558;2023-08-20T00:08:07;19.10;99.90
17154;DHT22;8692;52.164;7.558;2023-08-20T00:10:35;19.10;99.90
17154;DHT22;8692;52.164;7.558;2023-08-20T00:13:04;19.00;99.90
17154;DHT22;8692;52.164;7.558;2023-08-20T00:15:33;19.00;99.90
17154;DHT22;8692;52.164;7.558;2023-08-20T00:18:02;19.00;99.90
17154;DHT22;8692;52.164;7.558;2023-08-20T00:20:31;19.00;99.90
17154;DHT22;8692;52.164;7.558;2023-08-20T00:22:59;18.90;99.90
17154;DHT22;8692;52.164;7.558;2023-08-20T00:25:28;18.90;99.90
17154;DHT22;8692;52.164;7.558;2023-08-20T00:27:56;18.90;99.90
17154;DHT22;8692;52.164;7.558;2023-08-20T00:30:24;18.90;99.90
17154;DHT22;8692;52.164;7.558;2023-08-20T00:32:53;18.80;99.90
17154;DHT22;8692;52.164;7.558;2023-08-20T00:35:22;18.80;99.90
17154;DHT22;8692;52.164;7.558;2023-08-20T00:37:50;18.80;99.90
17154;DHT22;8692;52.164;7.558;2023-08-20T00:40:18;18.80;99.90
17154;DHT22;8692;52.164;7.558;2023-08-20T00:42:46;18.70;99.90
17154;DHT22;8692;52.164;7.558;2023-08-20T00:45:14;18.70;99.90
17154;DHT22;8692;52.164;7.558;2023-08-20T00:47:43;18.60;99.90
17154;DHT22;8692;52.164;7.558;2023-08-20T00:50:13;18.60;99.90
17154;DHT22;8692;52.164;7.558;2023-08-20T00:52:41;18.60;99.90
17154;DHT22;8692;52.164;7.558;2023-08-20T00:55:10;18.60;99.90
17154;DHT22;8692;52.164;7.558;2023-08-20T00:57:40;18.60;99.90
17154;DHT22;8692;52.164;7.558;2023-08-20T01:00:09;18.60;99.90
17154;DHT22;8692;52.164;7.558;2023-08-20T01:02:39;18.50;99.90
17154;DHT22;8692;52.164;7.558;2023-08-20T01:05:09;18.50;99.90
17154;DHT22;8692;52.164;7.558;2023-08-20T01:07:58;18.60;99.90
17154;DHT22;8692;52.164;7.558;2023-08-20T01:10:36;18.50;99.90
17154;DHT22;8692;52.164;7.558;2023-08-20T01:13:08;18.50;99.90
17154;DHT22;8692;52.164;7.558;2023-08-20T01:15:37;18.50;99.90
17154;DHT22;8692;52.164;7.558;2023-08-20T01:18:05;18.50;99.90
17154;DHT22;8692;52.164;7.558;2023-08-20T01:20:38;18.50;99.90
17154;DHT22;8692;52.164;7.558;2023-08-20T01:23:38;18.40;99.90
17154;DHT22;8692;52.164;7.558;2023-08-20T01:26:25;18.40;99.90
17154;DHT22;8692;52.164;7.558;2023-08-20T01:28:56;18.40;99.90
17154;DHT22;8692;52.164;7.558;2023-08-20T01:31:24;18.40;99.90
17154;DHT22;8692;52.164;7.558;2023-08-20T01:33:53;18.40;99.90
17154;DHT22;8692;52.164;7.558;2023-08-20T01:36:24;18.30;99.90
17154;DHT22;8692;52.164;7.558;2023-08-20T01:38:52;18.30;99.90
17154;DHT22;8692;52.164;7.558;2023-08-20T01:41:20;18.30;99.90
17154;DHT22;8692;52.164;7.558;2023-08-20T01:43:48;18.30;99.90
17154;DHT22;8692;52.164;7.558;2023-08-20T01:46:18;18.30;99.90
17154;DHT22;8692;52.164;7.558;2023-08-20T01:48:46;18.30;99.90
17154;DHT22;8692;52.164;7.558;2023-08-20T01:51:14;18.20;99.90
17154;DHT22;8692;52.164;7.558;2023-08-20T01:53:41;18.20;99.90
17154;DHT22;8692;52.164;7.558;2023-08-20T01:56:13;18.20;99.90
17154;DHT22;8692;52.164;7.558;2023-08-20T01:58:41;18.20;99.90
17154;DHT22;8692;52.164;7.558;2023-08-20T02:01:09;18.20;99.90
17154;DHT22;8692;52.164;7.558;2023-08-20T02:03:39;18.20;99.90
17154;DHT22;8692;52.164;7.558;2023-08-20T02:06:07;18.20;99.90
17154;DHT22;8692;52.164;7.558;2023-08-20T02:08:35;18.10;99.90
17154;DHT22;8692;52.164;7.558;2023-08-20T02:11:03;18.10;99.90
17154;DHT22;8692;52.164;7.558;2023-08-20T02:13:32;18.00;99.90
17154;DHT22;8692;52.164;7.558;2023-08-20T02:16:00;18.00;99.90
17154;DHT22;8692;52.164;7.558;2023-08-20T02:18:29;18.00;99.90
17154;DHT22;8692;52.164;7.558;2023-08-20T02:20:58;18.00;99.90
17154;DHT22;8692;52.164;7.558;2023-08-20T02:23:26;17.90;99.90
17154;DHT22;8692;52.164;7.558;2023-08-20T02:25:54;17.90;99.90
17154;DHT22;8692;52.164;7.558;2023-08-20T02:28:22;18.00;99.90
17154;DHT22;8692;52.164;7.558;2023-08-20T02:30:50;18.00;99.90
17154;DHT22;8692;52.164;7.558;2023-08-20T02:33:19;17.90;99.90
17154;DHT22;8692;52.164;7.558;2023-08-20T02:35:46;18.00;99.90
17154;DHT22;8692;52.164;7.558;2023-08-20T02:38:16;18.00;99.90
17154;DHT22;8692;52.164;7.558;2023-08-20T02:40:44;18.00;99.90
17154;DHT22;8692;52.164;7.558;2023-08-20T02:43:12;18.00;99.90
17154;DHT22;8692;52.164;7.558;2023-08-20T02:45:41;18.00;99.90
17154;DHT22;8692;52.164;7.558;2023-08-20T02:48:10;18.00;99.90
17154;DHT22;8692;52.164;7.558;2023-08-20T02:50:38;18.00;99.90
17154;DHT22;8692;52.164;7.558;2023-08-20T02:53:07;18.00;99.90
17154;DHT22;8692;52.164;7.558;2023-08-20T02:55:36;17.90;99.90
17154;DHT22;8692;52.164;7.558;2023-08-20T02:58:04;17.90;99.90
17154;DHT22;8692;52.164;7.558;2023-08-20T03:00:34;17.90;99.90
17154;DHT22;8692;52.164;7.558;2023-08-20T03:03:03;18.00;99.90
17154;DHT22;8692;52.164;7.558;2023-08-20T03:05:35;17.90;99.90
17154;DHT22;8692;52.164;7.558;2023-08-20T03:08:04;18.00;99.90
17154;DHT22;8692;52.164;7.558;2023-08-20T03:10:32;17.90;99.90
17154;DHT22;8692;52.164;7.558;2023-08-20T03:13:02;18.00;99.90
17154;DHT22;8692;52.164;7.558;2023-08-20T03:15:31;17.90;99.90
17154;DHT22;8692;52.164;7.558;2023-08-20T03:17:59;18.00;99.90
17154;DHT22;8692;52.164;7.558;2023-08-20T03:20:27;18.00;99.90
17154;DHT22;8692;52.164;7.558;2023-08-20T03:22:58;18.00;99.90
17154;DHT22;8692;52.164;7.558;2023-08-20T03:25:26;18.00;99.90
17154;DHT22;8692;52.164;7.558;2023-08-20T03:27:54;17.90;99.90
17154;DHT22;8692;52.164;7.558;2023-08-20T03:30:23;17.90;99.90
17154;DHT22;8692;52.164;7.558;2023-08-20T03:32:51;17.90;99.90
17154;DHT22;8692;52.164;7.558;2023-08-20T03:35:20;17.90;99.90
17154;DHT22;8692;52.164;7.558;2023-08-20T03:37:48;17.90;99.90
17154;DHT22;8692;52.164;7.558;2023-08-20T03:40:16;17.80;99.90
17154;DHT22;8692;52.164;7.558;2023-08-20T03:42:45;17.80;99.90
17154;DHT22;8692;52.164;7.558;2023-08-20T03:45:13;17.80;99.90
17154;DHT22;8692;52.164;7.558;2023-08-20T03:47:42;17.90;99.90
17154;DHT22;8692;52.164;7.558;2023-08-20T03:50:14;17.80;99.90
17154;DHT22;8692;52.164;7.558;2023-08-20T03:52:42;17.80;99.90
17154;DHT22;8692;52.164;7.558;2023-08-20T03:55:10;17.80;99.90
17154;DHT22;8692;52.164;7.558;2023-08-20T03:57:38;17.80;99.90
17154;DHT22;8692;52.164;7.558;2023-08-20T04:00:07;17.80;99.90
17154;DHT22;8692;52.164;7.558;2023-08-20T04:02:45;17.80;99.90
17154;DHT22;8692;52.164;7.558;2023-08-20T04:05:14;17.80;99.90
17154;DHT22;8692;52.164;7.558;2023-08-20T04:07:42;17.80;99.90
17154;DHT22;8692;52.164;7.558;2023-08-20T04:10:10;17.70;99.90
17154;DHT22;8692;52.164;7.558;2023-08-20T04:12:37;17.70;99.90
17154;DHT22;8692;52.164;7.558;2023-08-20T04:15:06;17.70;99.90
17154;DHT22;8692;52.164;7.558;2023-08-20T04:17:34;17.70;99.90
17154;DHT22;8692;52.164;7.558;2023-08-20T04:20:06;17.70;99.90
17154;DHT22;8692;52.164;7.558;2023-08-20T04:22:36;17.70;99.90
17154;DHT22;8692;52.164;7.558;2023-08-20T04:25:05;17.60;99.90
17154;DHT22;8692;52.164;7.558;2023-08-20T04:27:33;17.60;99.90
17154;DHT22;8692;52.164;7.558;2023-08-20T04:30:02;17.60;99.90
17154;DHT22;8692;52.164;7.558;2023-08-20T04:32:31;17.60;99.90
17154;DHT22;8692;52.164;7.558;2023-08-20T04:35:00;17.60;99.90
17154;DHT22;8692;52.164;7.558;2023-08-20T04:37:29;17.60;99.90
17154;DHT22;8692;52.164;7.558;2023-08-20T04:39:57;17.60;99.90
17154;DHT22;8692;52.164;7.558;2023-08-20T04:42:27;17.60;99.90
17154;DHT22;8692;52.164;7.558;2023-08-20T04:44:55;17.60;99.90
17154;DHT22;8692;52.164;7.558;2023-08-20T04:47:25;17.60;99.90
17154;DHT22;8692;52.164;7.558;2023-08-20T04:49:53;17.60;99.90
17154;DHT22;8692;52.164;7.558;2023-08-20T04:52:21;17.60;99.90
17154;DHT22;8692;52.164;7.558;2023-08-20T04:54:51;17.60;99.90
17154;DHT22;8692;52.164;7.558;2023-08-20T04:57:21;17.60;99.90
17154;DHT22;8692;52.164;7.558;2023-08-20T04:59:49;17.60;99.90
17154;DHT22;8692;52.164;7.558;2023-08-20T05:02:23;17.60;99.90
17154;DHT22;8692;52.164;7.558;2023-08-20T05:04:58;17.60;99.90
17154;DHT22;8692;52.164;7.558;2023-08-20T05:07:26;17.60;99.90
17154;DHT22;8692;52.164;7.558;2023-08-20T05:09:55;17.60;99.90
17154;DHT22;8692;52.164;7.558;2023-08-20T05:12:23;17.60;99.90
17154;DHT22;8692;52.164;7.558;2023-08-20T05:14:51;17.60;99.90
17154;DHT22;8692;52.164;7.558;2023-08-20T05:17:20;17.60;99.90
17154;DHT22;8692;52.164;7.558;2023-08-20T05:19:48;17.60;99.90
17154;DHT22;8692;52.164;7.558;2023-08-20T05:22:16;17.60;99.90
17154;DHT22;8692;52.164;7.558;2023-08-20T05:24:44;17.60;99.90
17154;DHT22;8692;52.164;7.558;2023-08-20T05:27:16;17.60;99.90
17154;DHT22;8692;52.164;7.558;2023-08-20T05:29:47;17.60;99.90
17154;DHT22;8692;52.164;7.558;2023-08-20T05:32:16;17.60;99.90
17154;DHT22;8692;52.164;7.558;2023-08-20T05:34:44;17.70;99.90
17154;DHT22;8692;52.164;7.558;2023-08-20T05:37:12;17.70;99.90
17154;DHT22;8692;52.164;7.558;2023-08-20T05:39:42;17.70;99.90
17154;DHT22;8692;52.164;7.558;2023-08-20T05:42:10;17.80;99.90
17154;DHT22;8692;52.164;7.558;2023-08-20T05:44:43;17.80;99.90
17154;DHT22;8692;52.164;7.558;2023-08-20T05:47:15;17.90;99.90
17154;DHT22;8692;52.164;7.558;2023-08-20T05:49:43;17.90;99.90
17154;DHT22;8692;52.164;7.558;2023-08-20T05:52:11;18.00;99.90
17154;DHT22;8692;52.164;7.558;2023-08-20T05:54:41;18.00;99.90
17154;DHT22;8692;52.164;7.558;2023-08-20T05:57:09;18.10;99.90
17154;DHT22;8692;52.164;7.558;2023-08-20T05:59:37;18.10;99.90
17154;DHT22;8692;52.164;7.558;2023-08-20T06:02:07;18.20;99.90
17154;DHT22;8692;52.164;7.558;2023-08-20T06:04:35;18.20;99.90
17154;DHT22;8692;52.164;7.558;2023-08-20T06:07:03;18.30;99.90
17154;DHT22;8692;52.164;7.558;2023-08-20T06:09:31;18.40;99.90
17154;DHT22;8692;52.164;7.558;2023-08-20T06:11:59;18.50;99.90
17154;DHT22;8692;52.164;7.558;2023-08-20T06:14:27;18.50;99.90
17154;DHT22;8692;52.164;7.558;2023-08-20T06:16:55;18.60;99.90
17154;DHT22;8692;52.164;7.558;2023-08-20T06:19:25;18.60;99.90
17154;DHT22;8692;52.164;7.558;2023-08-20T06:21:53;18.60;99.90
17154;DHT22;8692;52.164;7.558;2023-08-20T06:24:21;18.70;99.90
17154;DHT22;8692;52.164;7.558;2023-08-20T06:26:49;18.70;99.90
17154;DHT22;8692;52.164;7.558;2023-08-20T06:29:17;18.70;99.90
17154;DHT22;8692;52.164;7.558;2023-08-20T06:31:45;18.80;99.90
17154;DHT22;8692;52.164;7.558;2023-08-20T06:34:13;18.90;99.90
17154;DHT22;8692;52.164;7.558;2023-08-20T06:36:42;18.90;99.90
17154;DHT22;8692;52.164;7.558;2023-08-20T06:39:11;18.90;99.90
17154;DHT22;8692;52.164;7.558;2023-08-20T06:41:39;19.00;99.90
17154;DHT22;8692;52.164;7.558;2023-08-20T06:44:18;19.10;99.90
17154;DHT22;8692;52.164;7.558;2023-08-20T06:46:46;19.20;99.90
17154;DHT22;8692;52.164;7.558;2023-08-20T06:49:14;19.20;99.90
17154;DHT22;8692;52.164;7.558;2023-08-20T06:51:43;19.30;99.90
17154;DHT22;8692;52.164;7.558;2023-08-20T06:54:11;19.30;99.90
17154;DHT22;8692;52.164;7.558;2023-08-20T06:56:39;19.40;99.90
17154;DHT22;8692;52.164;7.558;2023-08-20T06:59:07;19.40;99.90
17154;DHT22;8692;52.164;7.558;2023-08-20T07:01:36;19.50;99.90
17154;DHT22;8692;52.164;7.558;2023-08-20T07:04:05;19.60;99.90
17154;DHT22;8692;52.164;7.558;2023-08-20T07:06:33;19.60;99.90
17154;DHT22;8692;52.164;7.558;2023-08-20T07:09:03;19.70;99.90
17154;DHT22;8692;52.164;7.558;2023-08-20T07:11:31;19.70;99.90
17154;DHT22;8692;52.164;7.558;2023-08-20T07:13:59;19.80;99.90
17154;DHT22;8692;52.164;7.558;2023-08-20T07:16:27;19.90;99.90
17154;DHT22;8692;52.164;7.558;2023-08-20T07:18:55;20.00;99.90
17154;DHT22;8692;52.164;7.558;2023-08-20T07:21:23;20.10;99.90
17154;DHT22;8692;52.164;7.558;2023-08-20T07:23:51;20.10;99.90
17154;DHT22;8692;52.164;7.558;2023-08-20T07:26:21;20.20;99.90
17154;DHT22;8692;52.164;7.558;2023-08-20T07:28:49;20.20;99.90
17154;DHT22;8692;52.164;7.558;2023-08-20T07:31:28;20.30;99.90
17154;DHT22;8692;52.164;7.558;2023-08-20T07:33:57;20.40;99.90
17154;DHT22;8692;52.164;7.558;2023-08-20T07:36:31;20.50;99.90
17154;DHT22;8692;52.164;7.558;2023-08-20T07:38:59;20.70;99.90
17154;DHT22;8692;52.164;7.558;2023-08-20T07:41:30;20.70;99.90
17154;DHT22;8692;52.164;7.558;2023-08-20T07:43:58;20.80;99.90
17154;DHT22;8692;52.164;7.558;2023-08-20T07:46:26;20.90;99.90
17154;DHT22;8692;52.164;7.558;2023-08-20T07:48:54;21.00;99.90
17154;DHT22;8692;52.164;7.558;2023-08-20T07:51:22;21.10;99.90
17154;DHT22;8692;52.164;7.558;2023-08-20T07:53:50;21.20;99.90
17154;DHT22;8692;52.164;7.558;2023-08-20T07:56:18;21.30;99.90
17154;DHT22;8692;52.164;7.558;2023-08-20T07:58:47;21.40;99.90
17154;DHT22;8692;52.164;7.558;2023-08-20T08:01:15;21.50;99.90
17154;DHT22;8692;52.164;7.558;2023-08-20T08:03:43;21.50;99.90
17154;DHT22;8692;52.164;7.558;2023-08-20T08:06:12;21.60;99.90
17154;DHT22;8692;52.164;7.558;2023-08-20T08:08:42;21.70;99.90
17154;DHT22;8692;52.164;7.558;2023-08-20T08:11:11;21.70;99.90
17154;DHT22;8692;52.164;7.558;2023-08-20T08:13:40;21.80;99.90
17154;DHT22;8692;52.164;7.558;2023-08-20T08:16:09;21.80;99.90
17154;DHT22;8692;52.164;7.558;2023-08-20T08:18:37;21.90;99.90
17154;DHT22;8692;52.164;7.558;2023-08-20T08:21:05;21.90;99.90
17154;DHT22;8692;52.164;7.558;2023-08-20T08:23:33;22.00;99.90
17154;DHT22;8692;52.164;7.558;2023-08-20T08:26:01;22.10;99.90
17154;DHT22;8692;52.164;7.558;2023-08-20T08:28:29;22.20;99.90
17154;DHT22;8692;52.164;7.558;2023-08-20T08:30:57;22.30;99.90
17154;DHT22;8692;52.164;7.558;2023-08-20T08:33:26;22.30;99.90
17154;DHT22;8692;52.164;7.558;2023-08-20T08:35:54;22.40;99.90
17154;DHT22;8692;52.164;7.558;2023-08-20T08:38:22;22.40;99.90
17154;DHT22;8692;52.164;7.558;2023-08-20T08:40:54;22.50;99.90
17154;DHT22;8692;52.164;7.558;2023-08-20T08:43:22;22.60;99.90
17154;DHT22;8692;52.164;7.558;2023-08-20T08:45:51;22.70;99.90
17154;DHT22;8692;52.164;7.558;2023-08-20T08:48:20;22.70;99.90
17154;DHT22;8692;52.164;7.558;2023-08-20T08:50:50;22.80;99.90
17154;DHT22;8692;52.164;7.558;2023-08-20T08:53:19;22.90;99.90
17154;DHT22;8692;52.164;7.558;2023-08-20T08:55:47;23.00;99.90
17154;DHT22;8692;52.164;7.558;2023-08-20T08:58:15;23.10;99.90
17154;DHT22;8692;52.164;7.558;2023-08-20T09:00:43;23.20;99.90
17154;DHT22;8692;52.164;7.558;2023-08-20T09:03:11;23.30;99.90
17154;DHT22;8692;52.164;7.558;2023-08-20T09:05:46;23.40;99.90
17154;DHT22;8692;52.164;7.558;2023-08-20T09:08:26;23.50;99.90
17154;DHT22;8692;52.164;7.558;2023-08-20T09:10:56;23.60;99.90
17154;DHT22;8692;52.164;7.558;2023-08-20T09:13:24;23.70;99.90
17154;DHT22;8692;52.164;7.558;2023-08-20T09:15:53;23.80;99.90
17154;DHT22;8692;52.164;7.558;2023-08-20T09:18:22;23.90;99.90
17154;DHT22;8692;52.164;7.558;2023-08-20T09:20:50;24.00;99.90
17154;DHT22;8692;52.164;7.558;2023-08-20T09:23:18;24.10;99.90
17154;DHT22;8692;52.164;7.558;2023-08-20T09:25:48;24.20;99.90
17154;DHT22;8692;52.164;7.558;2023-08-20T09:28:16;24.20;99.90
17154;DHT22;8692;52.164;7.558;2023-08-20T09:30:58;24.20;99.90
17154;DHT22;8692;52.164;7.558;2023-08-20T09:33:29;24.20;99.90
17154;DHT22;8692;52.164;7.558;2023-08-20T09:35:57;24.40;99.90
17154;DHT22;8692;52.164;7.558;2023-08-20T09:38:25;24.40;99.90
17154;DHT22;8692;52.164;7.558;2023-08-20T09:40:54;24.60;99.90
17154;DHT22;8692;52.164;7.558;2023-08-20T09:43:24;24.80;99.90
17154;DHT22;8692;52.164;7.558;2023-08-20T09:45:55;24.90;99.90
17154;DHT22;8692;52.164;7.558;2023-08-20T09:48:24;25.00;99.90
17154;DHT22;8692;52.164;7.558;2023-08-20T09:50:59;25.00;99.90
17154;DHT22;8692;52.164;7.558;2023-08-20T09:53:34;25.00;99.90
17154;DHT22;8692;52.164;7.558;2023-08-20T09:56:10;25.10;99.90
17154;DHT22;8692;52.164;7.558;2023-08-20T09:58:41;25.10;99.90
17154;DHT22;8692;52.164;7.558;2023-08-20T10:01:10;25.10;99.90
17154;DHT22;8692;52.164;7.558;2023-08-20T10:03:40;25.10;99.90
17154;DHT22;8692;52.164;7.558;2023-08-20T10:06:09;25.10;99.90
17154;DHT22;8692;52.164;7.558;2023-08-20T10:08:38;25.20;99.90
17154;DHT22;8692;52.164;7.558;2023-08-20T10:11:08;25.20;99.90
17154;DHT22;8692;52.164;7.558;2023-08-20T10:13:37;25.10;99.90
17154;DHT22;8692;52.164;7.558;2023-08-20T10:16:05;25.10;99.90
17154;DHT22;8692;52.164;7.558;2023-08-20T10:18:34;25.10;99.90
17154;DHT22;8692;52.164;7.558;2023-08-20T10:21:02;25.00;99.90
17154;DHT22;8692;52.164;7.558;2023-08-20T10:23:32;24.90;99.90
17154;DHT22;8692;52.164;7.558;2023-08-20T10:26:09;24.90;99.90
17154;DHT22;8692;52.164;7.558;2023-08-20T10:28:39;24.90;99.90
17154;DHT22;8692;52.164;7.558;2023-08-20T10:31:08;25.00;99.90
17154;DHT22;8692;52.164;7.558;2023-08-20T10:33:48;25.10;99.90
17154;DHT22;8692;52.164;7.558;2023-08-20T10:36:21;25.20;99.90
17154;DHT22;8692;52.164;7.558;2023-08-20T10:38:53;25.30;99.90
17154;DHT22;8692;52.164;7.558;2023-08-20T10:41:32;25.40;99.90
17154;DHT22;8692;52.164;7.558;2023-08-20T10:44:09;25.60;99.90
17154;DHT22;8692;52.164;7.558;2023-08-20T10:46:49;25.70;99.90
17154;DHT22;8692;52.164;7.558;2023-08-20T10:49:18;25.90;99.90
17154;DHT22;8692;52.164;7.558;2023-08-20T10:51:47;26.00;99.90
17154;DHT22;8692;52.164;7.558;2023-08-20T10:54:15;26.10;99.90
17154;DHT22;8692;52.164;7.558;2023-08-20T10:56:46;26.20;99.90
17154;DHT22;8692;52.164;7.558;2023-08-20T10:59:17;26.30;99.90
17154;DHT22;8692;52.164;7.558;2023-08-20T11:01:46;26.40;99.90
17154;DHT22;8692;52.164;7.558;2023-08-20T11:04:15;26.40;99.90
17154;DHT22;8692;52.164;7.558;2023-08-20T11:06:44;26.50;99.90
17154;DHT22;8692;52.164;7.558;2023-08-20T11:09:13;26.60;99.90
17154;DHT22;8692;52.164;7.558;2023-08-20T11:11:42;26.70;99.90
17154;DHT22;8692;52.164;7.558;2023-08-20T11:14:14;26.80;99.90
17154;DHT22;8692;52.164;7.558;2023-08-20T11:16:42;26.90;99.90
17154;DHT22;8692;52.164;7.558;2023-08-20T11:19:11;27.00;99.90
17154;DHT22;8692;52.164;7.558;2023-08-20T11:21:42;27.10;99.90
17154;DHT22;8692;52.164;7.558;2023-08-20T11:24:10;27.10;99.90
17154;DHT22;8692;52.164;7.558;2023-08-20T11:26:40;27.20;99.90
17154;DHT22;8692;52.164;7.558;2023-08-20T11:29:09;27.30;99.90
17154;DHT22;8692;52.164;7.558;2023-08-20T11:31:39;27.30;99.90
17154;DHT22;8692;52.164;7.558;2023-08-20T11:34:07;27.40;99.90
17154;DHT22;8692;52.164;7.558;2023-08-20T11:36:35;27.50;99.90
17154;DHT22;8692;52.164;7.558;2023-08-20T11:39:06;27.60;99.90
17154;DHT22;8692;52.164;7.558;2023-08-20T11:41:36;27.80;99.90
17154;DHT22;8692;52.164;7.558;2023-08-20T11:44:07;27.80;99.90
17154;DHT22;8692;52.164;7.558;2023-08-20T11:46:43;27.80;99.90
17154;DHT22;8692;52.164;7.558;2023-08-20T11:49:12;27.80;99.90
17154;DHT22;8692;52.164;7.558;2023-08-20T11:51:41;27.80;99.90
17154;DHT22;8692;52.164;7.558;2023-08-20T11:54:11;27.80;99.90
17154;DHT22;8692;52.164;7.558;2023-08-20T11:56:44;27.70;99.90
17154;DHT22;8692;52.164;7.558;2023-08-20T11:59:13;27.70;99.90
17154;DHT22;8692;52.164;7.558;2023-08-20T12:01:43;27.70;99.90
17154;DHT22;8692;52.164;7.558;2023-08-20T12:04:17;27.70;99.90
17154;DHT22;8692;52.164;7.558;2023-08-20T12:06:45;27.70;99.90
17154;DHT22;8692;52.164;7.558;2023-08-20T12:09:28;27.70;99.90
17154;DHT22;8692;52.164;7.558;2023-08-20T12:11:56;27.70;99.90
17154;DHT22;8692;52.164;7.558;2023-08-20T12:14:25;27.80;99.90
17154;DHT22;8692;52.164;7.558;2023-08-20T12:16:54;27.90;99.90
17154;DHT22;8692;52.164;7.558;2023-08-20T12:19:23;27.90;99.90
17154;DHT22;8692;52.164;7.558;2023-08-20T12:21:52;27.90;99.90
17154;DHT22;8692;52.164;7.558;2023-08-20T12:24:20;27.90;99.90
17154;DHT22;8692;52.164;7.558;2023-08-20T12:26:48;27.90;97.50
17154;DHT22;8692;52.164;7.558;2023-08-20T12:29:16;27.90;98.70
17154;DHT22;8692;52.164;7.558;2023-08-20T12:31:44;28.00;98.60
17154;DHT22;8692;52.164;7.558;2023-08-20T12:34:13;28.00;96.40
17154;DHT22;8692;52.164;7.558;2023-08-20T12:36:41;28.00;98.40
17154;DHT22;8692;52.164;7.558;2023-08-20T12:39:09;27.90;98.80
17154;DHT22;8692;52.164;7.558;2023-08-20T12:41:37;27.90;98.80
17154;DHT22;8692;52.164;7.558;2023-08-20T12:44:05;27.90;97.80
17154;DHT22;8692;52.164;7.558;2023-08-20T12:46:33;27.90;99.50
17154;DHT22;8692;52.164;7.558;2023-08-20T12:49:01;27.90;99.00
17154;DHT22;8692;52.164;7.558;2023-08-20T12:51:31;28.00;96.40
17154;DHT22;8692;52.164;7.558;2023-08-20T12:53:59;28.10;95.20
17154;DHT22;8692;52.164;7.558;2023-08-20T12:56:27;28.10;96.10
17154;DHT22;8692;52.164;7.558;2023-08-20T12:58:55;28.20;98.70
17154;DHT22;8692;52.164;7.558;2023-08-20T13:01:23;28.20;97.30
17154;DHT22;8692;52.164;7.558;2023-08-20T13:03:52;28.20;96.80
17154;DHT22;8692;52.164;7.558;2023-08-20T13:06:21;28.20;97.00
17154;DHT22;8692;52.164;7.558;2023-08-20T13:08:51;28.20;95.90
17154;DHT22;8692;52.164;7.558;2023-08-20T13:11:20;28.30;95.60
17154;DHT22;8692;52.164;7.558;2023-08-20T13:13:49;28.40;96.30
17154;DHT22;8692;52.164;7.558;2023-08-20T13:16:19;28.30;94.70
17154;DHT22;8692;52.164;7.558;2023-08-20T13:18:47;28.40;94.30
17154;DHT22;8692;52.164;7.558;2023-08-20T13:21:16;28.40;91.90
17154;DHT22;8692;52.164;7.558;2023-08-20T13:23:44;28.40;93.00
17154;DHT22;8692;52.164;7.558;2023-08-20T13:26:13;28.50;92.30
17154;DHT22;8692;52.164;7.558;2023-08-20T13:28:41;28.60;92.50
17154;DHT22;8692;52.164;7.558;2023-08-20T13:31:09;28.70;91.70
17154;DHT22;8692;52.164;7.558;2023-08-20T13:33:37;28.70;91.40
17154;DHT22;8692;52.164;7.558;2023-08-20T13:36:05;28.70;91.30
17154;DHT22;8692;52.164;7.558;2023-08-20T13:38:34;28.80;91.00
17154;DHT22;8692;52.164;7.558;2023-08-20T13:41:02;28.80;88.70
17154;DHT22;8692;52.164;7.558;2023-08-20T13:43:32;28.90;89.20
17154;DHT22;8692;52.164;7.558;2023-08-20T13:46:00;28.90;87.00
17154;DHT22;8692;52.164;7.558;2023-08-20T13:48:28;29.00;89.30
17154;DHT22;8692;52.164;7.558;2023-08-20T13:50:56;29.00;90.60
17154;DHT22;8692;52.164;7.558;2023-08-20T13:53:24;29.10;90.30
17154;DHT22;8692;52.164;7.558;2023-08-20T13:55:54;29.10;89.40
17154;DHT22;8692;52.164;7.558;2023-08-20T13:58:22;29.20;90.10
17154;DHT22;8692;52.164;7.558;2023-08-20T14:00:51;29.20;88.70
17154;DHT22;8692;52.164;7.558;2023-08-20T14:03:19;29.30;88.80
17154;DHT22;8692;52.164;7.558;2023-08-20T14:05:47;29.30;88.30
17154;DHT22;8692;52.164;7.558;2023-08-20T14:08:15;29.30;88.20
17154;DHT22;8692;52.164;7.558;2023-08-20T14:10:43;29.40;84.90
17154;DHT22;8692;52.164;7.558;2023-08-20T14:13:11;29.50;85.50
17154;DHT22;8692;52.164;7.558;2023-08-20T14:15:39;29.50;84.20
17154;DHT22;8692;52.164;7.558;2023-08-20T14:18:08;29.60;84.70
17154;DHT22;8692;52.164;7.558;2023-08-20T14:20:36;29.80;82.70
17154;DHT22;8692;52.164;7.558;2023-08-20T14:23:04;29.80;82.00
17154;DHT22;8692;52.164;7.558;2023-08-20T14:25:32;29.80;83.10
17154;DHT22;8692;52.164;7.558;2023-08-20T14:28:01;29.90;79.00
17154;DHT22;8692;52.164;7.558;2023-08-20T14:30:29;29.90;79.50
17154;DHT22;8692;52.164;7.558;2023-08-20T14:32:57;29.90;80.10
17154;DHT22;8692;52.164;7.558;2023-08-20T14:35:26;30.00;79.00
17154;DHT22;8692;52.164;7.558;2023-08-20T14:37:54;30.00;75.10
17154;DHT22;8692;52.164;7.558;2023-08-20T14:40:22;30.00;77.10
17154;DHT22;8692;52.164;7.558;2023-08-20T14:42:50;29.90;76.50
17154;DHT22;8692;52.164;7.558;2023-08-20T14:45:18;29.90;77.60
17154;DHT22;8692;52.164;7.558;2023-08-20T14:47:46;29.90;76.80
17154;DHT22;8692;52.164;7.558;2023-08-20T14:50:14;29.90;77.20
17154;DHT22;8692;52.164;7.558;2023-08-20T14:52:44;30.00;77.30
17154;DHT22;8692;52.164;7.558;2023-08-20T14:55:14;30.10;75.20
17154;DHT22;8692;52.164;7.558;2023-08-20T14:57:42;30.10;76.50
17154;DHT22;8692;52.164;7.558;2023-08-20T15:00:18;30.00;73.60
17154;DHT22;8692;52.164;7.558;2023-08-20T15:02:47;30.00;73.80
17154;DHT22;8692;52.164;7.558;2023-08-20T15:05:16;30.00;73.60
17154;DHT22;8692;52.164;7.558;2023-08-20T15:07:46;30.10;75.00
17154;DHT22;8692;52.164;7.558;2023-08-20T15:10:14;30.20;74.90
17154;DHT22;8692;52.164;7.558;2023-08-20T15:12:42;30.20;73.50
17154;DHT22;8692;52.164;7.558;2023-08-20T15:15:10;30.20;73.70
17154;DHT22;8692;52.164;7.558;2023-08-20T15:17:38;30.20;73.50
17154;DHT22;8692;52.164;7.558;2023-08-20T15:20:07;30.20;74.70
17154;DHT22;8692;52.164;7.558;2023-08-20T15:22:37;30.30;73.10
17154;DHT22;8692;52.164;7.558;2023-08-20T15:25:07;30.30;72.90
17154;DHT22;8692;52.164;7.558;2023-08-20T15:27:37;30.40;71.80
17154;DHT22;8692;52.164;7.558;2023-08-20T15:30:06;30.40;71.20
17154;DHT22;8692;52.164;7.558;2023-08-20T15:32:35;30.30;71.40
17154;DHT22;8692;52.164;7.558;2023-08-20T15:35:03;30.30;70.00
17154;DHT22;8692;52.164;7.558;2023-08-20T15:37:33;30.30;69.90
17154;DHT22;8692;52.164;7.558;2023-08-20T15:40:02;30.30;69.10
17154;DHT22;8692;52.164;7.558;2023-08-20T15:42:35;30.20;70.70
17154;DHT22;8692;52.164;7.558;2023-08-20T15:45:03;30.10;69.50
17154;DHT22;8692;52.164;7.558;2023-08-20T15:47:31;30.10;70.00
17154;DHT22;8692;52.164;7.558;2023-08-20T15:49:59;30.20;71.20
17154;DHT22;8692;52.164;7.558;2023-08-20T15:52:27;30.20;70.60
17154;DHT22;8692;52.164;7.558;2023-08-20T15:54:55;30.20;70.00
17154;DHT22;8692;52.164;7.558;2023-08-20T15:57:23;30.20;67.00